createdAt,value
2018-04-19T00:01:32.666Z,76.50
2018-04-19T00:03:58.841Z,76.50
2018-04-19T00:06:25.039Z,76.60
2018-04-19T00:08:51.205Z,76.70
2018-04-19T00:11:17.447Z,76.60
2018-04-19T00:13:43.630Z,76.70
2018-04-19T00:16:09.832Z,76.80
2018-04-19T00:18:36.012Z,76.80
2018-04-19T00:21:02.216Z,76.80
2018-04-19T00:23:28.387Z,76.90
2018-04-19T00:25:54.563Z,76.90
2018-04-19T00:28:20.732Z,76.90
2018-04-19T00:30:46.908Z,76.90
2018-04-19T00:33:13.059Z,76.70
2018-04-19T00:35:39.237Z,76.80
2018-04-19T00:38:05.407Z,76.90
2018-04-19T00:40:31.584Z,76.80
2018-04-19T00:42:57.762Z,76.90
2018-04-19T00:45:23.919Z,76.80
2018-04-19T00:47:50.111Z,76.80
2018-04-19T00:50:16.278Z,76.70
2018-04-19T00:52:42.458Z,76.90
2018-04-19T00:55:08.622Z,76.70
2018-04-19T00:57:35.244Z,76.70
2018-04-19T01:00:01.471Z,76.80
2018-04-19T01:02:27.677Z,76.70
2018-04-19T01:04:53.849Z,76.80
2018-04-19T01:07:20.043Z,76.90
2018-04-19T01:09:46.233Z,76.90
2018-04-19T01:12:12.407Z,77.00
2018-04-19T01:14:38.575Z,76.90
2018-04-19T01:17:04.771Z,76.90
2018-04-19T01:19:33.721Z,77.70
2018-04-19T01:22:00.810Z,77.00
2018-04-19T01:24:27.035Z,77.00
2018-04-19T01:26:53.244Z,77.00
2018-04-19T01:29:19.415Z,76.90
2018-04-19T01:31:45.585Z,76.90
2018-04-19T01:34:11.809Z,76.90
2018-04-19T01:36:38.037Z,77.00
2018-04-19T01:39:04.249Z,76.90
2018-04-19T01:41:30.417Z,77.00
2018-04-19T01:43:56.601Z,77.00
2018-04-19T01:46:22.759Z,77.00
2018-04-19T01:48:48.962Z,77.00
2018-04-19T01:51:15.145Z,77.00
2018-04-19T01:53:41.348Z,77.10
2018-04-19T01:56:07.561Z,77.10
2018-04-19T01:58:33.715Z,77.00
2018-04-19T02:00:59.908Z,77.00
2018-04-19T02:03:26.080Z,77.00
2018-04-19T02:05:52.248Z,77.00
2018-04-19T02:08:18.409Z,77.00
2018-04-19T02:10:44.590Z,77.00
2018-04-19T02:13:10.767Z,77.10
2018-04-19T02:15:36.922Z,77.10
2018-04-19T02:18:03.083Z,77.10
2018-04-19T02:20:29.258Z,77.10
2018-04-19T02:22:55.424Z,77.10
2018-04-19T02:25:21.618Z,77.10
2018-04-19T02:27:47.798Z,77.10
2018-04-19T02:30:13.986Z,77.20
2018-04-19T02:32:40.164Z,77.10
2018-04-19T02:35:06.324Z,77.00
2018-04-19T02:37:32.517Z,77.00
2018-04-19T02:39:58.673Z,77.10
2018-04-19T02:42:24.841Z,76.90
2018-04-19T02:44:50.999Z,77.00
2018-04-19T02:47:17.187Z,77.00
2018-04-19T02:49:43.382Z,77.00
2018-04-19T02:52:09.589Z,77.70
2018-04-19T02:54:35.766Z,77.00
2018-04-19T02:57:01.927Z,77.00
2018-04-19T02:59:28.107Z,77.00
2018-04-19T03:01:54.281Z,77.00
2018-04-19T03:04:20.451Z,77.00
2018-04-19T03:06:46.652Z,76.90
2018-04-19T03:09:12.842Z,77.00
2018-04-19T03:11:39.010Z,77.00
2018-04-19T03:14:05.192Z,77.00
2018-04-19T03:16:31.368Z,77.10
2018-04-19T03:18:57.520Z,77.00
2018-04-19T03:21:23.729Z,77.10
2018-04-19T03:23:49.894Z,76.90
2018-04-19T03:26:16.083Z,77.00
2018-04-19T03:28:42.288Z,76.90
2018-04-19T03:31:08.459Z,76.50
2018-04-19T03:33:34.610Z,76.40
2018-04-19T03:36:00.793Z,76.50
2018-04-19T03:38:27.750Z,76.20
2018-04-19T03:40:53.960Z,76.20
2018-04-19T03:43:20.484Z,76.10
2018-04-19T03:45:46.702Z,76.10
2018-04-19T03:48:12.903Z,76.30
2018-04-19T03:50:39.095Z,76.10
2018-04-19T03:53:05.344Z,76.10
2018-04-19T03:55:31.524Z,76.00
2018-04-19T03:57:57.769Z,76.10
2018-04-19T04:00:24.706Z,76.00
2018-04-19T04:02:50.901Z,76.00
2018-04-19T04:05:17.088Z,76.00
2018-04-19T04:07:43.258Z,76.10
2018-04-19T04:10:09.774Z,76.90
2018-04-19T04:12:36.404Z,75.90
2018-04-19T04:15:02.579Z,76.00
2018-04-19T04:17:28.759Z,76.00
2018-04-19T04:19:54.932Z,76.00
2018-04-19T04:22:21.102Z,76.00
2018-04-19T04:24:48.006Z,76.10
2018-04-19T04:27:14.176Z,76.10
2018-04-19T04:29:41.089Z,76.10
2018-04-19T04:32:07.289Z,76.00
2018-04-19T04:34:33.458Z,76.00
2018-04-19T04:36:59.611Z,76.10
2018-04-19T04:39:25.879Z,76.00
2018-04-19T04:41:52.082Z,76.00
2018-04-19T04:44:18.249Z,75.90
2018-04-19T04:46:44.420Z,75.90
2018-04-19T04:49:10.611Z,75.90
2018-04-19T04:51:36.768Z,75.70
2018-04-19T04:54:03.001Z,75.70
2018-04-19T04:56:29.174Z,75.90
2018-04-19T04:58:55.339Z,75.80
2018-04-19T05:01:21.553Z,75.70
2018-04-19T05:03:47.754Z,75.70
2018-04-19T05:06:14.011Z,75.70
2018-04-19T05:08:40.196Z,75.80
2018-04-19T05:11:06.393Z,75.30
2018-04-19T05:13:32.602Z,75.00
2018-04-19T05:15:58.822Z,74.80
2018-04-19T05:18:25.030Z,74.90
2018-04-19T05:20:51.625Z,74.70
2018-04-19T05:23:17.845Z,74.60
2018-04-19T05:25:44.017Z,75.70
2018-04-19T05:28:10.203Z,74.90
2018-04-19T05:30:36.463Z,74.90
2018-04-19T05:33:02.699Z,75.00
2018-04-19T05:35:29.608Z,74.80
2018-04-19T05:37:55.760Z,74.70
2018-04-19T05:40:21.938Z,75.10
2018-04-19T05:42:48.179Z,74.90
2018-04-19T05:45:14.415Z,74.80
2018-04-19T05:47:40.604Z,74.70
2018-04-19T05:50:06.816Z,74.00
2018-04-19T05:52:33.088Z,73.30
2018-04-19T05:54:59.541Z,72.90
2018-04-19T05:57:25.766Z,73.10
2018-04-19T05:59:51.961Z,72.90
2018-04-19T06:02:18.182Z,73.20
2018-04-19T06:04:44.371Z,73.00
2018-04-19T06:07:11.299Z,73.10
2018-04-19T06:09:37.515Z,73.00
2018-04-19T06:12:03.691Z,72.70
2018-04-19T06:14:29.891Z,72.60
2018-04-19T06:16:56.075Z,72.30
2018-04-19T06:19:22.272Z,72.20
2018-04-19T06:21:48.552Z,72.50
2018-04-19T06:24:14.868Z,71.70
2018-04-19T06:26:41.102Z,71.90
2018-04-19T06:29:07.333Z,71.60
2018-04-19T06:31:33.529Z,72.00
2018-04-19T06:33:59.697Z,72.70
2018-04-19T06:36:25.880Z,72.80
2018-04-19T06:38:52.057Z,73.10
2018-04-19T06:41:18.409Z,73.30
2018-04-19T06:43:44.582Z,73.80
2018-04-19T06:46:10.778Z,73.90
2018-04-19T06:48:36.985Z,74.00
2018-04-19T06:51:04.680Z,73.90
2018-04-19T06:53:30.872Z,73.90
2018-04-19T06:55:57.024Z,74.00
2018-04-19T06:58:23.204Z,73.90
2018-04-19T07:00:49.468Z,73.70
2018-04-19T07:03:15.638Z,73.70
2018-04-19T07:05:41.829Z,73.70
2018-04-19T07:08:08.037Z,73.70
2018-04-19T07:10:34.204Z,74.00
2018-04-19T07:13:00.412Z,74.00
2018-04-19T07:15:26.616Z,74.00
2018-04-19T07:17:52.803Z,74.00
2018-04-19T07:20:18.983Z,75.00
2018-04-19T07:22:45.190Z,74.80
2018-04-19T07:25:11.404Z,74.50
2018-04-19T07:27:37.603Z,74.30
2018-04-19T07:30:03.789Z,74.50
2018-04-19T07:32:29.973Z,74.50
2018-04-19T07:34:56.132Z,74.80
2018-04-19T07:37:22.302Z,74.70
2018-04-19T07:39:49.232Z,74.80
2018-04-19T07:42:15.416Z,74.70
2018-04-19T07:44:41.581Z,74.70
2018-04-19T07:47:07.757Z,74.60
2018-04-19T07:49:33.970Z,74.80
2018-04-19T07:52:00.129Z,74.60
2018-04-19T07:54:26.291Z,74.70
2018-04-19T07:56:52.439Z,74.70
2018-04-19T07:59:18.603Z,75.20
2018-04-19T08:01:44.851Z,75.10
2018-04-19T08:04:11.001Z,75.10
2018-04-19T08:06:37.160Z,75.10
2018-04-19T08:09:03.401Z,74.90
2018-04-19T08:11:29.511Z,74.70
2018-04-19T08:13:56.466Z,74.40
2018-04-19T08:16:22.627Z,74.30
2018-04-19T08:18:48.834Z,74.30
2018-04-19T08:21:15.003Z,74.20
2018-04-19T08:23:41.171Z,74.20
2018-04-19T08:26:08.069Z,74.10
2018-04-19T08:28:34.285Z,74.00
2018-04-19T08:31:01.213Z,74.20
2018-04-19T08:33:27.995Z,74.00
2018-04-19T08:35:54.164Z,74.00
2018-04-19T08:38:20.336Z,73.90
2018-04-19T08:40:46.518Z,73.80
2018-04-19T08:43:12.673Z,73.80
2018-04-19T08:45:38.869Z,73.70
2018-04-19T08:48:05.783Z,73.70
2018-04-19T08:50:31.948Z,73.70
2018-04-19T08:52:58.131Z,73.60
2018-04-19T08:55:24.328Z,74.00
2018-04-19T08:57:50.485Z,74.30
2018-04-19T09:00:16.654Z,73.70
2018-04-19T09:02:44.343Z,73.30
2018-04-19T09:05:10.504Z,73.20
2018-04-19T09:07:36.722Z,73.00
2018-04-19T09:10:06.798Z,72.80
2018-04-19T09:12:32.940Z,72.70
2018-04-19T09:14:59.126Z,74.00
2018-04-19T09:17:25.343Z,73.10
2018-04-19T09:19:51.509Z,73.30
2018-04-19T09:22:17.688Z,73.00
2018-04-19T09:24:43.852Z,72.90
2018-04-19T09:27:10.044Z,72.80
2018-04-19T09:29:36.223Z,72.80
2018-04-19T09:32:02.362Z,73.10
2018-04-19T09:34:28.562Z,74.00
2018-04-19T09:36:54.749Z,73.10
2018-04-19T09:39:20.954Z,72.90
2018-04-19T09:41:47.132Z,72.90
2018-04-19T09:44:13.294Z,72.60
2018-04-19T09:46:39.500Z,72.80
2018-04-19T09:49:05.673Z,73.00
2018-04-19T09:51:31.887Z,72.70
2018-04-19T09:53:58.169Z,72.60
2018-04-19T09:56:24.293Z,72.70
2018-04-19T09:58:51.249Z,73.70
2018-04-19T10:01:17.472Z,72.80
2018-04-19T10:03:45.719Z,72.60
2018-04-19T10:06:11.880Z,72.70
2018-04-19T10:08:38.091Z,73.80
2018-04-19T10:11:04.298Z,73.70
2018-04-19T10:13:30.441Z,74.00
2018-04-19T10:15:56.716Z,73.40
2018-04-19T10:18:22.837Z,74.10
2018-04-19T10:20:49.110Z,73.20
2018-04-19T10:23:16.052Z,73.30
2018-04-19T10:25:43.468Z,73.80
2018-04-19T10:28:09.671Z,73.80
2018-04-19T10:30:35.853Z,74.10
2018-04-19T10:33:02.012Z,73.80
2018-04-19T10:35:28.214Z,73.60
2018-04-19T10:37:54.364Z,73.60
2018-04-19T10:40:20.565Z,73.30
2018-04-19T10:42:47.483Z,73.30
2018-04-19T10:45:13.691Z,73.20
2018-04-19T10:47:39.878Z,73.40
2018-04-19T10:50:06.065Z,73.70
2018-04-19T10:52:32.299Z,73.20
2018-04-19T10:54:58.849Z,73.30
2018-04-19T10:57:25.001Z,73.10
2018-04-19T10:59:51.831Z,73.10
2018-04-19T11:02:17.972Z,73.10
2018-04-19T11:04:44.167Z,73.20
2018-04-19T11:07:11.069Z,73.60
2018-04-19T11:09:37.241Z,73.60
2018-04-19T11:12:03.407Z,73.70
2018-04-19T11:14:29.571Z,73.80
2018-04-19T11:16:55.725Z,73.90
2018-04-19T11:19:21.899Z,73.80
2018-04-19T11:21:48.085Z,73.80
2018-04-19T11:24:15.013Z,73.80
2018-04-19T11:26:41.197Z,73.80
2018-04-19T11:29:07.359Z,73.80
2018-04-19T11:31:33.600Z,73.70
2018-04-19T11:33:59.735Z,73.80
2018-04-19T11:36:25.900Z,74.50
2018-04-19T11:38:52.815Z,73.80
2018-04-19T11:41:19.992Z,73.80
2018-04-19T11:43:46.884Z,73.90
2018-04-19T11:46:13.045Z,73.80
2018-04-19T11:48:39.222Z,73.80
2018-04-19T11:51:05.459Z,73.80
2018-04-19T11:53:31.660Z,73.70
2018-04-19T11:55:57.834Z,73.60
2018-04-19T11:58:23.972Z,73.70
2018-04-19T12:00:50.122Z,73.90
2018-04-19T12:03:16.302Z,74.00
2018-04-19T12:05:42.472Z,74.10
2018-04-19T12:08:08.632Z,74.20
2018-04-19T12:10:34.807Z,74.10
2018-04-19T12:13:00.961Z,74.00
2018-04-19T12:15:27.174Z,74.00
2018-04-19T12:17:53.323Z,74.00
2018-04-19T12:20:19.541Z,73.80
2018-04-19T12:22:45.729Z,73.90
2018-04-19T12:25:11.889Z,73.90
2018-04-19T12:27:38.098Z,73.90
2018-04-19T12:30:04.253Z,73.90
2018-04-19T12:32:31.179Z,74.00
2018-04-19T12:34:57.379Z,73.90
2018-04-19T12:37:23.530Z,73.90
2018-04-19T12:39:49.741Z,74.00
2018-04-19T12:42:15.932Z,74.00
2018-04-19T12:44:42.122Z,74.00
2018-04-19T12:47:08.269Z,74.00
2018-04-19T12:49:34.474Z,73.90
2018-04-19T12:52:00.655Z,73.90
2018-04-19T12:54:26.824Z,73.90
2018-04-19T12:56:53.007Z,73.90
2018-04-19T12:59:19.202Z,73.90
2018-04-19T13:01:45.369Z,73.90
2018-04-19T13:04:11.562Z,73.90
2018-04-19T13:06:38.465Z,74.00
2018-04-19T13:09:04.633Z,73.90
2018-04-19T13:11:31.546Z,74.00
2018-04-19T13:13:57.712Z,74.00
2018-04-19T13:16:23.898Z,74.00
2018-04-19T13:18:50.069Z,73.90
2018-04-19T13:21:16.998Z,73.90
2018-04-19T13:23:43.160Z,73.90
2018-04-19T13:26:09.310Z,73.80
2018-04-19T13:28:35.537Z,73.80
2018-04-19T13:31:01.704Z,73.90
2018-04-19T13:33:27.933Z,73.80
2018-04-19T13:35:54.049Z,75.30
2018-04-19T13:38:20.239Z,75.50
2018-04-19T13:40:46.448Z,74.30
2018-04-19T13:43:13.347Z,74.40
2018-04-19T13:45:39.569Z,74.20
2018-04-19T13:48:05.750Z,74.30
2018-04-19T13:50:31.952Z,74.50
2018-04-19T13:52:58.151Z,75.50
2018-04-19T13:55:24.418Z,74.20
2018-04-19T13:57:50.609Z,74.00
2018-04-19T14:00:16.774Z,73.70
2018-04-19T14:02:44.445Z,74.00
2018-04-19T14:05:10.625Z,73.90
2018-04-19T14:07:36.833Z,73.80
2018-04-19T14:10:03.014Z,73.80
2018-04-19T14:12:29.209Z,74.20
2018-04-19T14:14:55.375Z,74.90
2018-04-19T14:17:21.566Z,73.90
2018-04-19T14:19:47.861Z,74.40
2018-04-19T14:22:14.793Z,73.70
2018-04-19T14:24:41.725Z,73.60
2018-04-19T14:27:07.957Z,73.60
2018-04-19T14:29:34.116Z,73.70
2018-04-19T14:32:00.321Z,73.90
2018-04-19T14:34:26.491Z,73.70
2018-04-19T14:36:52.672Z,76.80
2018-04-19T14:39:18.845Z,74.20
2018-04-19T14:41:45.045Z,74.20
2018-04-19T14:44:11.969Z,74.20
2018-04-19T14:46:38.221Z,74.10
2018-04-19T14:49:04.417Z,74.00
2018-04-19T14:51:30.681Z,73.80
2018-04-19T14:53:56.854Z,73.80
2018-04-19T14:56:23.017Z,74.50
2018-04-19T14:58:49.936Z,74.00
2018-04-19T15:01:16.120Z,74.00
2018-04-19T15:03:42.347Z,74.20
2018-04-19T15:06:09.268Z,74.20
2018-04-19T15:08:35.436Z,74.10
2018-04-19T15:11:01.690Z,73.80
2018-04-19T15:13:27.883Z,73.40
2018-04-19T15:15:54.075Z,73.60
2018-04-19T15:18:20.240Z,73.80
2018-04-19T15:20:46.461Z,73.80
2018-04-19T15:23:12.680Z,73.70
2018-04-19T15:25:38.896Z,73.80
2018-04-19T15:28:05.280Z,73.80
2018-04-19T15:30:31.475Z,73.60
2018-04-19T15:32:57.672Z,73.50
2018-04-19T15:35:23.874Z,73.80
2018-04-19T15:37:50.066Z,73.90
2018-04-19T15:40:16.256Z,74.00
2018-04-19T15:42:42.451Z,74.00
2018-04-19T15:45:08.721Z,74.00
2018-04-19T15:47:34.899Z,74.10
2018-04-19T15:50:01.101Z,73.90
2018-04-19T15:52:27.248Z,74.40
2018-04-19T15:54:53.419Z,73.50
2018-04-19T15:57:19.607Z,73.40
2018-04-19T15:59:45.773Z,73.30
2018-04-19T16:02:12.005Z,73.30
2018-04-19T16:04:38.896Z,73.30
2018-04-19T16:07:05.354Z,73.30
2018-04-19T16:09:31.565Z,73.30
2018-04-19T16:11:57.777Z,73.30
2018-04-19T16:14:23.963Z,73.20
2018-04-19T16:16:50.211Z,74.90
2018-04-19T16:19:16.416Z,74.00
2018-04-19T16:21:42.617Z,74.20
2018-04-19T16:24:08.831Z,73.70
2018-04-19T16:26:35.001Z,74.40
2018-04-19T16:29:01.292Z,73.90
2018-04-19T16:31:27.498Z,73.60
2018-04-19T16:33:54.378Z,73.60
2018-04-19T16:36:20.538Z,73.50
2018-04-19T16:38:46.691Z,73.50
2018-04-19T16:41:12.843Z,73.50
2018-04-19T16:43:39.072Z,73.70
2018-04-19T16:46:05.974Z,73.60
2018-04-19T16:48:32.161Z,73.60
2018-04-19T16:50:58.355Z,73.70
2018-04-19T16:53:24.523Z,73.70
2018-04-19T16:55:50.729Z,73.70
2018-04-19T16:58:16.965Z,73.80
2018-04-19T17:00:43.171Z,73.80
2018-04-19T17:03:09.357Z,73.70
2018-04-19T17:05:35.551Z,73.70
2018-04-19T17:08:01.868Z,73.80
2018-04-19T17:10:28.014Z,73.90
2018-04-19T17:12:54.153Z,73.90
2018-04-19T17:15:20.347Z,73.90
2018-04-19T17:17:47.289Z,73.80
2018-04-19T17:20:13.459Z,73.70
2018-04-19T17:22:39.632Z,73.90
2018-04-19T17:25:05.801Z,73.80
2018-04-19T17:27:31.961Z,73.80
2018-04-19T17:29:58.153Z,73.80
2018-04-19T17:32:24.319Z,73.80
2018-04-19T17:34:50.498Z,73.80
2018-04-19T17:37:17.208Z,73.70
2018-04-19T17:39:44.131Z,74.00
2018-04-19T17:42:10.336Z,73.80
2018-04-19T17:44:36.564Z,74.00
2018-04-19T17:47:02.739Z,73.90
2018-04-19T17:49:28.900Z,74.70
2018-04-19T17:51:55.046Z,74.00
2018-04-19T17:54:21.204Z,74.10
2018-04-19T17:56:47.387Z,74.30
2018-04-19T17:59:13.558Z,74.40
2018-04-19T18:01:39.786Z,74.50
2018-04-19T18:04:05.981Z,74.60
2018-04-19T18:06:32.179Z,74.60
2018-04-19T18:08:58.344Z,74.80
2018-04-19T18:11:24.560Z,75.20
2018-04-19T18:13:50.770Z,75.10
2018-04-19T18:16:16.911Z,75.10
2018-04-19T18:18:43.313Z,75.30
2018-04-19T18:21:09.516Z,75.30
2018-04-19T18:23:35.714Z,76.10
2018-04-19T18:26:01.947Z,75.30
2018-04-19T18:28:28.134Z,75.20
2018-04-19T18:30:55.833Z,75.30
2018-04-19T18:33:22.373Z,75.30
2018-04-19T18:35:48.557Z,75.40
2018-04-19T18:38:14.737Z,75.60
2018-04-19T18:40:40.912Z,75.60
2018-04-19T18:43:07.081Z,75.70
2018-04-19T18:45:33.279Z,75.50
2018-04-19T18:48:00.245Z,75.60
2018-04-19T18:50:26.466Z,75.50
2018-04-19T18:52:52.632Z,75.70
2018-04-19T18:55:18.826Z,75.60
2018-04-19T18:57:45.056Z,75.60
2018-04-19T19:00:11.240Z,75.70
2018-04-19T19:02:37.415Z,75.60
2018-04-19T19:05:03.574Z,75.80
2018-04-19T19:07:29.760Z,76.30
2018-04-19T19:09:56.691Z,76.20
2018-04-19T19:12:22.920Z,76.20
2018-04-19T19:14:49.103Z,76.30
2018-04-19T19:17:15.296Z,75.60
2018-04-19T19:19:41.471Z,75.80
2018-04-19T19:22:07.647Z,75.90
2018-04-19T19:24:33.866Z,75.70
2018-04-19T19:27:00.774Z,75.50
2018-04-19T19:29:26.957Z,75.50
2018-04-19T19:31:53.134Z,75.50
2018-04-19T19:34:19.308Z,75.60
2018-04-19T19:36:46.227Z,75.40
2018-04-19T19:39:12.419Z,75.30
2018-04-19T19:41:38.632Z,75.30
2018-04-19T19:44:05.064Z,75.50
2018-04-19T19:46:31.289Z,75.60
2018-04-19T19:48:57.554Z,75.80
2018-04-19T19:51:23.720Z,75.80
2018-04-19T19:53:49.899Z,75.70
2018-04-19T19:56:16.080Z,75.70
2018-04-19T19:58:42.280Z,75.70
2018-04-19T20:01:08.495Z,75.70
2018-04-19T20:03:34.687Z,75.70
2018-04-19T20:06:00.857Z,75.80
2018-04-19T20:08:27.014Z,75.60
2018-04-19T20:10:53.179Z,75.40
2018-04-19T20:13:19.344Z,75.90
2018-04-19T20:15:45.523Z,76.20
2018-04-19T20:18:11.757Z,76.60
2018-04-19T20:20:37.961Z,75.90
2018-04-19T20:23:04.203Z,76.00
2018-04-19T20:25:30.418Z,75.70
2018-04-19T20:27:56.568Z,75.60
2018-04-19T20:30:22.786Z,77.00
2018-04-19T20:32:49.690Z,77.50
2018-04-19T20:35:16.147Z,76.60
2018-04-19T20:37:43.069Z,75.50
2018-04-19T20:40:09.220Z,75.50
2018-04-19T20:42:35.379Z,75.30
2018-04-19T20:45:01.541Z,75.30
2018-04-19T20:47:27.720Z,75.20
2018-04-19T20:49:53.968Z,75.20
2018-04-19T20:52:20.213Z,75.20
2018-04-19T20:54:46.431Z,75.20
2018-04-19T20:57:12.598Z,75.10
2018-04-19T20:59:39.389Z,75.10
2018-04-19T21:02:05.689Z,75.10
2018-04-19T21:04:31.825Z,75.30
2018-04-19T21:06:58.015Z,75.30
2018-04-19T21:09:24.189Z,75.80
2018-04-19T21:11:51.098Z,75.90
2018-04-19T21:14:17.321Z,75.90
2018-04-19T21:16:43.559Z,76.00
2018-04-19T21:19:09.721Z,76.00
2018-04-19T21:21:35.901Z,76.10
2018-04-19T21:24:02.095Z,76.00
2018-04-19T21:26:28.295Z,75.90
2018-04-19T21:28:54.438Z,75.90
2018-04-19T21:31:20.598Z,75.90
2018-04-19T21:33:46.793Z,75.90
2018-04-19T21:36:17.799Z,76.10
2018-04-19T21:38:43.939Z,76.00
2018-04-19T21:41:10.114Z,76.30
2018-04-19T21:43:36.311Z,76.20
2018-04-19T21:46:02.464Z,76.30
2018-04-19T21:48:28.677Z,76.30
2018-04-19T21:50:54.986Z,76.40
2018-04-19T21:53:21.145Z,76.50
2018-04-19T21:55:47.341Z,76.50
2018-04-19T21:58:13.529Z,76.40
2018-04-19T22:00:39.702Z,76.50
2018-04-19T22:03:05.894Z,76.70
2018-04-19T22:05:32.102Z,76.60
2018-04-19T22:07:58.283Z,76.70
2018-04-19T22:10:24.470Z,76.60
2018-04-19T22:12:50.646Z,76.60
2018-04-19T22:15:16.859Z,76.70
2018-04-19T22:17:43.031Z,76.60
2018-04-19T22:20:09.942Z,76.70
2018-04-19T22:22:36.148Z,76.70
2018-04-19T22:25:02.330Z,76.70
2018-04-19T22:27:28.546Z,76.60
2018-04-19T22:29:54.724Z,76.60
2018-04-19T22:32:20.946Z,76.70
2018-04-19T22:34:47.139Z,76.70
2018-04-19T22:37:13.294Z,76.70
2018-04-19T22:39:39.504Z,76.70
2018-04-19T22:42:05.717Z,76.70
2018-04-19T22:44:32.621Z,76.80
2018-04-19T22:46:58.802Z,76.70
2018-04-19T22:49:24.985Z,76.90
2018-04-19T22:51:51.184Z,76.80
2018-04-19T22:54:17.367Z,76.70
2018-04-19T22:56:43.560Z,76.50
2018-04-19T22:59:09.736Z,76.60
2018-04-19T23:01:36.671Z,77.20
2018-04-19T23:04:02.852Z,76.40
2018-04-19T23:06:29.023Z,76.60
2018-04-19T23:08:55.927Z,76.60
2018-04-19T23:11:22.120Z,76.60
2018-04-19T23:13:48.315Z,76.70
2018-04-19T23:16:15.251Z,76.70
2018-04-19T23:18:41.446Z,76.60
2018-04-19T23:21:07.634Z,76.50
2018-04-19T23:23:33.824Z,76.60
2018-04-19T23:26:00.003Z,76.60
2018-04-19T23:28:26.159Z,76.70
2018-04-19T23:30:52.312Z,76.60
2018-04-19T23:33:18.490Z,76.60
2018-04-19T23:35:44.659Z,76.60
2018-04-19T23:38:10.854Z,76.70
2018-04-19T23:40:37.019Z,76.60
2018-04-19T23:43:03.192Z,76.50
2018-04-19T23:45:29.352Z,76.50
2018-04-19T23:47:55.516Z,76.50
2018-04-19T23:50:21.735Z,76.60
2018-04-19T23:52:47.950Z,76.70
2018-04-19T23:55:14.183Z,76.60
2018-04-19T23:57:40.375Z,76.70
